createdAt,value
2022-07-26T00:00:12.946Z,75.30
2022-07-26T00:02:47.238Z,75.40
2022-07-26T00:05:18.788Z,75.50
2022-07-26T00:07:45.957Z,75.60
2022-07-26T00:10:13.497Z,75.60
2022-07-26T00:12:40.486Z,75.70
2022-07-26T00:15:10.231Z,75.70
2022-07-26T00:17:37.079Z,75.90
2022-07-26T00:20:04.844Z,75.90
2022-07-26T00:22:34.546Z,75.90
2022-07-26T00:25:04.732Z,76.20
2022-07-26T00:27:32.797Z,76.20
2022-07-26T00:29:59.777Z,76.40
2022-07-26T00:32:26.528Z,76.50
2022-07-26T00:34:53.466Z,76.60
2022-07-26T00:37:21.009Z,76.70
2022-07-26T00:39:48.574Z,76.80
2022-07-26T00:42:15.538Z,77.00
2022-07-26T00:44:45.166Z,77.10
2022-07-26T00:47:12.286Z,77.20
2022-07-26T00:49:39.006Z,77.30
2022-07-26T00:52:06.938Z,77.40
2022-07-26T00:54:34.108Z,77.40
2022-07-26T00:57:01.059Z,77.50
2022-07-26T00:59:28.163Z,77.60
2022-07-26T01:01:55.242Z,77.80
2022-07-26T01:04:22.294Z,77.90
2022-07-26T01:06:49.770Z,78.00
2022-07-26T01:09:17.028Z,78.10
2022-07-26T01:11:43.736Z,78.20
2022-07-26T01:14:10.931Z,78.30
2022-07-26T01:16:38.058Z,78.40
2022-07-26T01:19:04.949Z,78.50
2022-07-26T01:21:33.280Z,78.50
2022-07-26T01:24:00.029Z,78.60
2022-07-26T01:26:26.779Z,78.70
2022-07-26T01:28:53.659Z,79.00
2022-07-26T01:31:20.662Z,79.10
2022-07-26T01:33:47.933Z,79.10
2022-07-26T01:36:14.803Z,79.30
2022-07-26T01:38:42.221Z,79.50
2022-07-26T01:41:09.623Z,79.70
2022-07-26T01:43:37.532Z,79.80
2022-07-26T01:46:06.384Z,80.00
2022-07-26T01:48:33.694Z,80.00
2022-07-26T01:51:01.092Z,80.00
2022-07-26T01:53:27.814Z,80.00
2022-07-26T01:55:55.015Z,79.90
2022-07-26T01:58:21.945Z,79.90
2022-07-26T02:00:49.395Z,79.80
2022-07-26T02:03:16.246Z,79.70
2022-07-26T02:05:43.133Z,79.60
2022-07-26T02:08:11.152Z,79.50
2022-07-26T02:10:57.010Z,79.30
2022-07-26T02:13:23.833Z,79.20
2022-07-26T02:15:50.635Z,79.20
2022-07-26T02:18:17.681Z,79.10
2022-07-26T02:20:44.532Z,79.10
2022-07-26T02:23:11.533Z,79.00
2022-07-26T02:25:38.237Z,78.80
2022-07-26T02:28:05.255Z,78.70
2022-07-26T02:30:31.925Z,79.30
2022-07-26T02:32:58.667Z,78.40
2022-07-26T02:35:25.397Z,78.20
2022-07-26T02:37:52.088Z,78.20
2022-07-26T02:40:19.640Z,78.20
2022-07-26T02:42:46.505Z,78.10
2022-07-26T02:45:13.263Z,78.10
2022-07-26T02:47:53.014Z,78.10
2022-07-26T02:50:21.100Z,78.20
2022-07-26T02:52:48.557Z,78.20
2022-07-26T02:55:20.634Z,78.10
2022-07-26T02:57:48.312Z,78.20
2022-07-26T03:00:17.991Z,78.20
2022-07-26T03:02:44.882Z,78.20
2022-07-26T03:05:11.654Z,78.20
2022-07-26T03:07:38.428Z,78.20
2022-07-26T03:10:05.672Z,78.40
2022-07-26T03:12:32.358Z,78.00
2022-07-26T03:14:59.190Z,78.30
2022-07-26T03:17:26.033Z,78.30
2022-07-26T03:19:52.806Z,78.30
2022-07-26T03:22:19.517Z,78.30
2022-07-26T03:24:46.187Z,78.40
2022-07-26T03:27:12.947Z,79.30
2022-07-26T03:29:39.674Z,78.60
2022-07-26T03:32:06.803Z,78.80
2022-07-26T03:34:33.664Z,78.80
2022-07-26T03:37:00.402Z,78.90
2022-07-26T03:39:27.143Z,79.00
2022-07-26T03:41:53.913Z,79.10
2022-07-26T03:44:20.625Z,79.20
2022-07-26T03:46:47.316Z,79.30
2022-07-26T03:49:16.979Z,79.40
2022-07-26T03:51:44.617Z,79.60
2022-07-26T03:54:11.778Z,79.60
2022-07-26T03:56:40.306Z,79.80
2022-07-26T03:59:09.389Z,79.90
2022-07-26T04:01:41.640Z,80.10
2022-07-26T04:04:10.577Z,80.20
2022-07-26T04:06:39.191Z,80.40
2022-07-26T04:09:07.236Z,80.60
2022-07-26T04:11:34.774Z,80.70
2022-07-26T04:14:02.175Z,80.90
2022-07-26T04:16:29.239Z,81.10
2022-07-26T04:18:55.988Z,81.20
2022-07-26T04:21:22.802Z,81.30
2022-07-26T04:23:51.512Z,81.40
2022-07-26T04:26:20.271Z,81.50
2022-07-26T04:28:47.434Z,81.60
2022-07-26T04:31:14.301Z,81.60
2022-07-26T04:33:41.099Z,81.70
2022-07-26T04:36:08.320Z,81.80
2022-07-26T04:38:35.063Z,81.90
2022-07-26T04:41:01.803Z,82.00
2022-07-26T04:43:28.555Z,82.10
2022-07-26T04:45:57.428Z,82.20
2022-07-26T04:48:24.539Z,82.20
2022-07-26T04:50:51.283Z,82.20
2022-07-26T04:53:17.993Z,82.20
2022-07-26T04:55:45.017Z,82.10
2022-07-26T04:58:11.767Z,82.10
2022-07-26T05:01:02.769Z,82.00
2022-07-26T05:03:25.410Z,82.00
2022-07-26T05:05:52.761Z,81.90
2022-07-26T05:08:19.690Z,81.80
2022-07-26T05:10:47.784Z,81.70
2022-07-26T05:13:16.207Z,81.70
2022-07-26T05:15:49.917Z,81.70
2022-07-26T05:18:20.864Z,81.70
2022-07-26T05:20:51.513Z,81.70
2022-07-26T05:23:19.902Z,81.80
2022-07-26T05:25:47.380Z,81.90
2022-07-26T05:28:14.227Z,81.80
2022-07-26T05:30:40.985Z,81.80
2022-07-26T05:33:07.956Z,81.70
2022-07-26T05:35:34.752Z,81.60
2022-07-26T05:38:01.574Z,81.50
2022-07-26T05:40:28.372Z,81.40
2022-07-26T05:42:54.996Z,81.20
2022-07-26T05:45:21.814Z,81.10
2022-07-26T05:47:52.433Z,81.00
2022-07-26T05:50:19.991Z,80.90
2022-07-26T05:52:46.775Z,80.70
2022-07-26T05:55:13.977Z,80.60
2022-07-26T05:57:41.982Z,80.40
2022-07-26T06:00:11.435Z,80.20
2022-07-26T06:02:38.214Z,80.10
2022-07-26T06:05:05.219Z,81.00
2022-07-26T06:07:32.173Z,80.40
2022-07-26T06:09:59.982Z,80.50
2022-07-26T06:12:26.691Z,80.50
2022-07-26T06:14:53.406Z,80.50
2022-07-26T06:17:20.230Z,80.50
2022-07-26T06:19:47.899Z,80.30
2022-07-26T06:22:15.166Z,80.30
2022-07-26T06:24:41.921Z,80.50
2022-07-26T06:27:08.670Z,80.50
2022-07-26T06:29:35.451Z,80.50
2022-07-26T06:32:02.322Z,80.50
2022-07-26T06:34:29.707Z,80.70
2022-07-26T06:36:56.511Z,80.80
2022-07-26T06:39:23.423Z,80.90
2022-07-26T06:41:50.433Z,81.10
2022-07-26T06:44:17.251Z,81.20
2022-07-26T06:46:43.972Z,81.20
2022-07-26T06:49:10.760Z,81.30
2022-07-26T06:51:38.062Z,81.50
2022-07-26T06:54:05.756Z,81.40
2022-07-26T06:56:32.965Z,81.10
2022-07-26T06:58:59.760Z,81.90
2022-07-26T07:01:57.745Z,81.20
2022-07-26T07:04:13.173Z,81.30
2022-07-26T07:06:40.376Z,81.10
2022-07-26T07:09:08.912Z,81.10
2022-07-26T07:11:36.380Z,81.00
2022-07-26T07:14:03.477Z,80.80
2022-07-26T07:16:30.488Z,80.70
2022-07-26T07:18:57.428Z,80.50
2022-07-26T07:21:24.387Z,80.40
2022-07-26T07:23:51.174Z,80.20
2022-07-26T07:26:20.120Z,79.70
2022-07-26T07:28:46.978Z,79.40
2022-07-26T07:31:15.465Z,79.00
2022-07-26T07:33:52.600Z,78.60
2022-07-26T07:36:19.970Z,78.20
2022-07-26T07:38:47.073Z,77.60
2022-07-26T07:41:13.878Z,77.20
2022-07-26T07:43:40.843Z,76.90
2022-07-26T07:46:07.609Z,76.50
2022-07-26T07:48:34.380Z,76.10
2022-07-26T07:51:01.317Z,75.70
2022-07-26T07:53:28.568Z,75.30
2022-07-26T07:55:57.679Z,75.10
2022-07-26T07:58:24.511Z,75.00
2022-07-26T08:00:55.349Z,74.80
2022-07-26T08:03:22.612Z,74.50
2022-07-26T08:05:50.803Z,74.20
2022-07-26T08:08:22.169Z,74.10
2022-07-26T08:10:52.181Z,74.10
2022-07-26T08:13:21.537Z,74.20
2022-07-26T08:15:52.792Z,74.10
2022-07-26T08:18:22.572Z,73.80
2022-07-26T08:20:51.420Z,72.90
2022-07-26T08:23:19.052Z,72.40
2022-07-26T08:25:56.275Z,71.90
2022-07-26T08:28:46.229Z,71.70
2022-07-26T08:31:11.909Z,71.50
2022-07-26T08:33:40.869Z,71.40
2022-07-26T08:36:12.384Z,71.00
2022-07-26T08:38:39.412Z,70.60
2022-07-26T08:41:06.359Z,69.80
2022-07-26T08:43:33.123Z,69.40
2022-07-26T08:46:24.710Z,69.00
2022-07-26T08:48:53.398Z,68.70
2022-07-26T08:51:22.579Z,68.60
2022-07-26T08:53:50.597Z,68.50
2022-07-26T08:56:17.341Z,68.40
2022-07-26T08:58:45.331Z,68.30
2022-07-26T09:01:13.137Z,68.10
2022-07-26T09:03:41.677Z,67.90
2022-07-26T09:06:13.475Z,67.50
2022-07-26T09:08:40.661Z,67.20
2022-07-26T09:11:28.239Z,66.80
2022-07-26T09:13:56.827Z,66.60
2022-07-26T09:16:24.121Z,66.80
2022-07-26T09:18:51.068Z,66.40
2022-07-26T09:21:32.435Z,65.80
2022-07-26T09:23:59.842Z,65.30
2022-07-26T09:26:28.014Z,65.40
2022-07-26T09:29:10.524Z,65.20
2022-07-26T09:31:39.222Z,65.30
2022-07-26T09:34:07.399Z,65.30
2022-07-26T09:36:51.563Z,64.80
2022-07-26T09:39:33.991Z,64.10
2022-07-26T09:42:27.591Z,63.90
2022-07-26T09:44:58.887Z,63.90
2022-07-26T09:47:39.691Z,64.00
2022-07-26T09:50:17.317Z,63.90
2022-07-26T09:53:07.272Z,63.60
2022-07-26T09:55:55.283Z,63.20
2022-07-26T09:58:23.164Z,63.00
2022-07-26T10:00:50.161Z,63.20
2022-07-26T10:03:17.195Z,63.40
2022-07-26T10:05:43.976Z,63.50
2022-07-26T10:08:12.122Z,63.60
2022-07-26T10:10:45.011Z,63.80
2022-07-26T10:13:11.996Z,64.00
2022-07-26T10:15:46.899Z,64.20
2022-07-26T10:18:35.974Z,64.30
2022-07-26T10:21:23.668Z,64.30
2022-07-26T10:23:51.754Z,64.40
2022-07-26T10:26:36.373Z,64.40
2022-07-26T10:29:20.589Z,64.60
2022-07-26T10:32:10.053Z,64.40
2022-07-26T10:34:38.837Z,64.20
2022-07-26T10:37:22.618Z,63.70
2022-07-26T10:39:49.855Z,63.20
2022-07-26T10:42:16.604Z,62.80
2022-07-26T10:44:45.191Z,62.50
2022-07-26T10:47:15.787Z,62.20
2022-07-26T10:49:53.647Z,62.10
2022-07-26T10:52:25.342Z,62.00
2022-07-26T10:55:00.995Z,61.90
2022-07-26T10:57:47.617Z,61.70
2022-07-26T11:00:16.069Z,61.10
2022-07-26T11:02:44.152Z,60.90
2022-07-26T11:05:17.817Z,60.60
2022-07-26T11:07:50.619Z,60.20
2022-07-26T11:10:33.247Z,60.00
2022-07-26T11:13:02.733Z,59.80
2022-07-26T11:15:30.097Z,59.70
2022-07-26T11:18:06.915Z,59.50
2022-07-26T11:20:33.667Z,59.00
2022-07-26T11:23:00.546Z,58.80
2022-07-26T11:25:27.548Z,58.50
2022-07-26T11:28:07.202Z,58.60
2022-07-26T11:30:35.029Z,58.70
2022-07-26T11:33:01.831Z,59.10
2022-07-26T11:35:29.885Z,59.60
2022-07-26T11:38:11.245Z,59.90
2022-07-26T11:40:46.700Z,60.20
2022-07-26T11:43:13.689Z,60.70
2022-07-26T11:45:40.742Z,61.00
2022-07-26T11:48:07.693Z,61.20
2022-07-26T11:50:34.521Z,61.50
2022-07-26T11:53:01.282Z,61.50
2022-07-26T11:55:31.347Z,61.60
2022-07-26T11:58:05.816Z,61.40
2022-07-26T12:00:32.828Z,60.70
2022-07-26T12:02:59.612Z,60.20
2022-07-26T12:05:27.732Z,59.80
2022-07-26T12:08:00.498Z,59.60
2022-07-26T12:10:28.732Z,59.20
2022-07-26T12:13:11.989Z,58.70
2022-07-26T12:15:50.310Z,58.00
2022-07-26T12:18:30.712Z,57.70
2022-07-26T12:21:06.301Z,57.50
2022-07-26T12:24:00.194Z,57.30
2022-07-26T12:26:30.641Z,56.90
2022-07-26T12:28:59.691Z,56.70
2022-07-26T12:31:34.317Z,56.30
2022-07-26T12:34:01.446Z,56.00
2022-07-26T12:36:29.800Z,55.80
2022-07-26T12:38:58.705Z,55.50
2022-07-26T12:41:36.932Z,55.70
2022-07-26T12:44:06.615Z,54.90
2022-07-26T12:46:35.023Z,54.90
2022-07-26T12:49:03.103Z,55.10
2022-07-26T12:51:30.070Z,55.20
2022-07-26T12:53:56.791Z,55.20
2022-07-26T12:56:23.562Z,55.40
2022-07-26T12:58:50.501Z,55.30
2022-07-26T13:01:17.307Z,55.20
2022-07-26T13:03:44.362Z,55.30
2022-07-26T13:06:11.357Z,55.40
2022-07-26T13:08:38.347Z,55.60
2022-07-26T13:11:05.243Z,55.80
2022-07-26T13:13:31.986Z,55.80
2022-07-26T13:15:58.818Z,55.90
2022-07-26T13:18:25.556Z,55.90
2022-07-26T13:20:52.330Z,56.00
2022-07-26T13:23:21.577Z,56.20
2022-07-26T13:25:49.705Z,56.00
2022-07-26T13:28:17.414Z,55.80
2022-07-26T13:30:45.071Z,55.70
2022-07-26T13:33:12.260Z,55.70
2022-07-26T13:35:41.307Z,55.70
2022-07-26T13:38:09.034Z,55.60
2022-07-26T13:40:36.090Z,55.50
2022-07-26T13:43:03.349Z,55.20
2022-07-26T13:45:30.102Z,55.00
2022-07-26T13:47:58.912Z,54.90
2022-07-26T13:50:27.855Z,54.80
2022-07-26T13:52:56.191Z,54.90
2022-07-26T13:55:23.125Z,54.90
2022-07-26T13:57:56.883Z,54.80
2022-07-26T14:00:26.712Z,54.60
2022-07-26T14:02:55.070Z,54.60
2022-07-26T14:05:22.288Z,54.40
2022-07-26T14:07:49.397Z,54.40
2022-07-26T14:10:16.265Z,54.50
2022-07-26T14:12:43.059Z,54.40
2022-07-26T14:15:14.142Z,54.40
2022-07-26T14:17:45.503Z,54.40
2022-07-26T14:20:12.650Z,54.50
2022-07-26T14:22:39.588Z,54.60
2022-07-26T14:25:07.267Z,54.70
2022-07-26T14:27:34.071Z,54.80
2022-07-26T14:30:00.829Z,54.80
2022-07-26T14:32:27.900Z,55.70
2022-07-26T14:34:54.699Z,55.30
2022-07-26T14:37:44.324Z,55.40
2022-07-26T14:40:08.930Z,55.50
2022-07-26T14:42:35.663Z,55.50
2022-07-26T14:45:02.525Z,55.90
2022-07-26T14:47:29.297Z,56.20
2022-07-26T14:49:56.023Z,56.30
2022-07-26T14:52:22.903Z,56.40
2022-07-26T14:54:49.585Z,56.30
2022-07-26T14:57:16.379Z,56.50
2022-07-26T14:59:43.073Z,56.40
2022-07-26T15:02:11.847Z,56.50
2022-07-26T15:04:38.645Z,56.70
2022-07-26T15:07:05.392Z,56.70
2022-07-26T15:09:32.226Z,56.80
2022-07-26T15:11:59.290Z,57.00
2022-07-26T15:14:25.951Z,57.00
2022-07-26T15:16:52.835Z,57.00
2022-07-26T15:19:25.157Z,56.90
2022-07-26T15:21:54.997Z,56.70
2022-07-26T15:24:23.294Z,56.30
2022-07-26T15:26:51.196Z,56.00
2022-07-26T15:29:17.927Z,55.80
2022-07-26T15:31:44.819Z,55.60
2022-07-26T15:34:12.135Z,55.70
2022-07-26T15:36:39.138Z,55.70
2022-07-26T15:39:16.725Z,55.70
2022-07-26T15:41:45.137Z,55.80
2022-07-26T15:44:12.594Z,55.80
2022-07-26T15:46:39.995Z,55.70
2022-07-26T15:49:07.803Z,55.40
2022-07-26T15:51:34.594Z,55.00
2022-07-26T15:54:03.040Z,54.70
2022-07-26T15:56:29.993Z,55.00
2022-07-26T15:58:56.694Z,54.20
2022-07-26T16:01:23.532Z,54.20
2022-07-26T16:03:50.519Z,54.40
2022-07-26T16:06:17.327Z,54.70
2022-07-26T16:09:13.438Z,54.70
2022-07-26T16:11:31.530Z,54.70
2022-07-26T16:14:01.243Z,54.80
2022-07-26T16:16:30.108Z,54.70
2022-07-26T16:18:57.125Z,54.80
2022-07-26T16:21:24.492Z,54.90
2022-07-26T16:23:51.292Z,55.00
2022-07-26T16:26:18.767Z,55.10
2022-07-26T16:28:45.854Z,55.20
2022-07-26T16:31:12.801Z,55.20
2022-07-26T16:33:46.054Z,55.20
2022-07-26T16:36:14.129Z,55.20
2022-07-26T16:38:41.087Z,55.40
2022-07-26T16:41:07.984Z,55.50
2022-07-26T16:43:35.282Z,55.60
2022-07-26T16:46:02.142Z,55.70
2022-07-26T16:48:28.897Z,55.70
2022-07-26T16:50:55.741Z,55.90
2022-07-26T16:53:22.465Z,56.00
2022-07-26T16:55:51.715Z,56.30
2022-07-26T16:58:19.214Z,56.60
2022-07-26T17:00:47.235Z,56.90
2022-07-26T17:03:15.999Z,57.30
2022-07-26T17:05:44.512Z,57.50
2022-07-26T17:08:11.326Z,57.80
2022-07-26T17:10:38.455Z,57.90
2022-07-26T17:13:05.235Z,58.20
2022-07-26T17:15:31.930Z,58.40
2022-07-26T17:17:58.860Z,58.60
2022-07-26T17:20:25.739Z,58.80
2022-07-26T17:22:52.810Z,59.10
2022-07-26T17:25:19.750Z,59.40
2022-07-26T17:27:46.554Z,59.60
2022-07-26T17:30:13.839Z,59.70
2022-07-26T17:32:40.921Z,59.80
2022-07-26T17:35:08.138Z,60.00
2022-07-26T17:37:35.140Z,60.00
2022-07-26T17:40:03.642Z,60.10
2022-07-26T17:42:30.865Z,60.20
2022-07-26T17:44:57.763Z,60.40
2022-07-26T17:47:29.333Z,60.60
2022-07-26T17:50:14.172Z,60.80
2022-07-26T17:52:45.991Z,61.10
2022-07-26T17:55:12.773Z,60.90
2022-07-26T17:57:39.946Z,61.00
2022-07-26T18:00:07.557Z,61.20
2022-07-26T18:02:34.468Z,61.40
2022-07-26T18:05:03.073Z,61.50
2022-07-26T18:07:29.861Z,61.70
2022-07-26T18:09:56.603Z,61.80
2022-07-26T18:12:23.459Z,61.80
2022-07-26T18:14:50.196Z,61.90
2022-07-26T18:17:17.094Z,62.00
2022-07-26T18:19:43.815Z,62.00
2022-07-26T18:22:10.549Z,62.10
2022-07-26T18:24:37.273Z,62.00
2022-07-26T18:27:04.072Z,62.10
2022-07-26T18:29:30.823Z,62.00
2022-07-26T18:32:00.182Z,62.00
2022-07-26T18:34:27.159Z,62.00
2022-07-26T18:36:54.309Z,62.00
2022-07-26T18:39:21.286Z,62.10
2022-07-26T18:41:48.258Z,62.20
2022-07-26T18:44:15.128Z,62.30
2022-07-26T18:46:41.934Z,62.40
2022-07-26T18:49:09.224Z,62.50
2022-07-26T18:51:42.933Z,62.50
2022-07-26T18:54:10.042Z,62.60
2022-07-26T18:56:36.749Z,62.60
2022-07-26T18:59:03.905Z,62.50
2022-07-26T19:01:30.763Z,62.60
2022-07-26T19:03:57.647Z,62.50
2022-07-26T19:06:24.786Z,62.50
2022-07-26T19:08:51.504Z,62.60
2022-07-26T19:11:18.277Z,62.60
2022-07-26T19:13:44.967Z,62.50
2022-07-26T19:16:11.749Z,62.50
2022-07-26T19:18:38.472Z,62.50
2022-07-26T19:21:05.349Z,62.60
2022-07-26T19:23:32.079Z,62.70
2022-07-26T19:25:58.891Z,62.80
2022-07-26T19:28:25.768Z,62.80
2022-07-26T19:30:52.516Z,62.70
2022-07-26T19:33:19.392Z,62.70
2022-07-26T19:35:46.169Z,62.50
2022-07-26T19:38:13.441Z,62.60
2022-07-26T19:40:40.312Z,62.60
2022-07-26T19:43:07.113Z,62.80
2022-07-26T19:45:33.857Z,62.90
2022-07-26T19:48:00.694Z,62.90
2022-07-26T19:50:27.425Z,63.00
2022-07-26T19:52:54.226Z,63.10
2022-07-26T19:55:22.638Z,63.20
2022-07-26T19:57:49.523Z,63.30
2022-07-26T20:00:16.853Z,63.40
2022-07-26T20:02:43.837Z,63.50
2022-07-26T20:05:11.808Z,63.70
2022-07-26T20:07:39.062Z,63.80
2022-07-26T20:10:06.848Z,63.90
2022-07-26T20:12:34.762Z,64.10
2022-07-26T20:15:01.550Z,64.20
2022-07-26T20:17:33.390Z,64.40
2022-07-26T20:20:00.313Z,64.40
2022-07-26T20:22:27.057Z,64.50
2022-07-26T20:24:56.163Z,64.70
2022-07-26T20:27:24.134Z,64.90
2022-07-26T20:29:51.339Z,65.20
2022-07-26T20:32:18.581Z,65.50
2022-07-26T20:34:45.400Z,65.70
2022-07-26T20:37:12.181Z,66.10
2022-07-26T20:39:38.924Z,66.50
2022-07-26T20:42:06.674Z,67.00
2022-07-26T20:44:36.013Z,67.60
2022-07-26T20:47:06.260Z,67.90
2022-07-26T20:49:33.226Z,68.30
2022-07-26T20:52:00.132Z,68.70
2022-07-26T20:54:26.909Z,68.90
2022-07-26T20:56:53.588Z,69.20
2022-07-26T20:59:20.337Z,69.40
2022-07-26T21:01:47.136Z,69.60
2022-07-26T21:04:13.964Z,71.20
2022-07-26T21:06:40.663Z,71.10
2022-07-26T21:09:08.861Z,71.10
2022-07-26T21:11:36.292Z,71.40
2022-07-26T21:14:03.212Z,71.40
2022-07-26T21:16:30.116Z,71.60
2022-07-26T21:18:56.924Z,71.70
2022-07-26T21:21:23.768Z,71.80
2022-07-26T21:23:50.789Z,71.90
2022-07-26T21:26:17.603Z,72.00
2022-07-26T21:28:44.297Z,72.20
2022-07-26T21:31:11.041Z,72.30
2022-07-26T21:33:37.716Z,72.30
2022-07-26T21:36:04.685Z,72.50
2022-07-26T21:38:32.691Z,72.50
2022-07-26T21:40:59.635Z,72.80
2022-07-26T21:43:26.392Z,72.90
2022-07-26T21:45:53.233Z,73.10
2022-07-26T21:48:20.246Z,73.30
2022-07-26T21:50:46.948Z,73.30
2022-07-26T21:53:13.727Z,73.40
2022-07-26T21:55:41.074Z,73.50
2022-07-26T21:58:07.909Z,73.60
2022-07-26T22:00:36.590Z,73.70
2022-07-26T22:03:03.759Z,73.90
2022-07-26T22:05:39.515Z,74.00
2022-07-26T22:08:09.044Z,74.20
2022-07-26T22:10:44.146Z,74.20
2022-07-26T22:13:12.144Z,74.20
2022-07-26T22:15:38.824Z,74.40
2022-07-26T22:18:06.022Z,74.40
2022-07-26T22:20:34.270Z,74.50
2022-07-26T22:23:03.160Z,74.60
2022-07-26T22:25:31.230Z,74.60
2022-07-26T22:27:58.230Z,75.40
2022-07-26T22:30:25.409Z,74.80
2022-07-26T22:32:52.070Z,74.80
2022-07-26T22:35:18.960Z,74.90
2022-07-26T22:37:45.669Z,74.90
2022-07-26T22:40:12.946Z,75.10
2022-07-26T22:42:39.909Z,75.30
2022-07-26T22:45:09.935Z,75.40
2022-07-26T22:47:36.979Z,75.50
2022-07-26T22:50:06.565Z,75.60
2022-07-26T22:52:33.439Z,75.70
2022-07-26T22:55:00.153Z,75.90
2022-07-26T22:57:27.143Z,76.80
2022-07-26T22:59:57.769Z,76.30
2022-07-26T23:02:24.500Z,76.30
2022-07-26T23:04:51.233Z,76.50
2022-07-26T23:07:17.946Z,76.60
2022-07-26T23:09:45.630Z,76.70
2022-07-26T23:12:12.385Z,76.80
2022-07-26T23:14:39.140Z,76.90
2022-07-26T23:17:05.826Z,76.90
2022-07-26T23:19:32.484Z,77.00
2022-07-26T23:21:59.319Z,77.00
2022-07-26T23:24:26.007Z,77.10
2022-07-26T23:26:52.804Z,77.20
2022-07-26T23:29:19.519Z,77.30
2022-07-26T23:31:46.365Z,77.50
2022-07-26T23:34:13.193Z,77.40
2022-07-26T23:36:40.084Z,77.70
2022-07-26T23:39:06.812Z,77.70
2022-07-26T23:41:33.686Z,77.90
2022-07-26T23:44:00.348Z,78.10
2022-07-26T23:46:27.577Z,78.20
2022-07-26T23:48:55.389Z,78.50
2022-07-26T23:51:25.329Z,78.60
2022-07-26T23:53:52.914Z,78.70
2022-07-26T23:56:19.687Z,79.00
2022-07-26T23:58:46.407Z,79.20
